createdAt,value
2018-06-02T00:07:34.761Z,20.21
2018-06-02T00:10:02.304Z,20.27
2018-06-02T00:12:29.831Z,20.28
2018-06-02T00:14:57.367Z,20.28
2018-06-02T00:17:24.929Z,20.32
2018-06-02T00:19:52.472Z,20.30
2018-06-02T00:22:19.967Z,20.32
2018-06-02T00:24:47.468Z,20.19
2018-06-02T00:27:14.998Z,20.09
2018-06-02T00:29:42.560Z,20.04
2018-06-02T00:32:10.167Z,20.05
2018-06-02T00:34:37.683Z,19.95
2018-06-02T00:37:05.201Z,19.88
2018-06-02T00:39:32.707Z,19.78
2018-06-02T00:42:00.218Z,19.68
2018-06-02T00:44:27.720Z,19.66
2018-06-02T00:46:55.265Z,19.64
2018-06-02T00:49:22.796Z,19.61
2018-06-02T00:51:50.344Z,19.73
2018-06-02T00:57:12.979Z,19.64
2018-06-02T00:59:40.490Z,19.59
2018-06-02T01:02:08.013Z,19.55
2018-06-02T01:04:35.527Z,19.50
2018-06-02T01:07:03.055Z,19.45
2018-06-02T01:09:30.559Z,19.46
2018-06-02T01:11:58.071Z,19.41
2018-06-02T01:14:25.577Z,19.31
2018-06-02T01:16:53.067Z,19.27
2018-06-02T01:19:20.567Z,19.21
2018-06-02T01:26:23.700Z,19.05
2018-06-02T01:28:51.198Z,19.03
2018-06-02T01:31:18.707Z,19.06
2018-06-02T01:33:46.242Z,19.02
2018-06-02T01:36:13.723Z,18.98
2018-06-02T01:38:41.224Z,18.99
2018-06-02T01:41:08.744Z,18.95
2018-06-02T01:43:36.251Z,18.93
2018-06-02T01:46:03.772Z,18.88
2018-06-02T01:48:31.294Z,18.92
2018-06-02T01:50:58.855Z,18.94
2018-06-02T01:53:26.354Z,18.87
2018-06-02T01:55:53.860Z,18.84
2018-06-02T01:58:21.370Z,18.78
2018-06-02T02:00:48.912Z,18.72
2018-06-02T02:03:16.417Z,18.70
2018-06-02T02:05:43.932Z,18.71
2018-06-02T02:08:11.434Z,18.71
2018-06-02T02:10:38.931Z,18.70
2018-06-02T02:13:06.443Z,18.69
2018-06-02T02:15:33.947Z,18.54
2018-06-02T02:18:01.456Z,18.61
2018-06-02T02:20:28.951Z,18.63
2018-06-02T02:22:56.488Z,18.59
2018-06-02T02:25:24.000Z,18.62
2018-06-02T02:27:51.544Z,18.55
2018-06-02T02:30:19.050Z,18.46
2018-06-02T02:32:46.596Z,18.44
2018-06-02T02:35:14.099Z,18.47
2018-06-02T02:37:41.605Z,18.40
2018-06-02T02:40:09.098Z,18.38
2018-06-02T02:42:36.616Z,18.38
2018-06-02T02:45:04.131Z,18.36
2018-06-02T02:47:31.651Z,18.32
2018-06-02T02:49:59.147Z,18.32
2018-06-02T02:52:26.656Z,18.20
2018-06-02T02:54:54.156Z,18.14
2018-06-02T02:57:21.667Z,18.11
2018-06-02T02:59:49.176Z,18.09
2018-06-02T03:02:16.670Z,18.14
2018-06-02T03:04:44.168Z,18.12
2018-06-02T03:07:11.683Z,18.07
2018-06-02T03:09:39.195Z,18.05
2018-06-02T03:12:06.717Z,17.90
2018-06-02T03:14:34.222Z,17.98
2018-06-02T03:17:01.738Z,17.91
2018-06-02T03:19:29.243Z,17.97
2018-06-02T03:21:56.745Z,18.00
2018-06-02T03:24:24.251Z,18.01
2018-06-02T03:26:51.760Z,18.00
2018-06-02T03:29:19.300Z,18.03
2018-06-02T03:31:46.791Z,18.06
2018-06-02T03:34:14.337Z,18.13
2018-06-02T03:36:41.838Z,18.14
2018-06-02T03:39:09.335Z,18.10
2018-06-02T03:41:36.825Z,18.22
2018-06-02T03:44:04.333Z,18.21
2018-06-02T03:46:31.853Z,18.24
2018-06-02T03:48:59.351Z,18.27
2018-06-02T03:51:26.895Z,18.21
2018-06-02T03:53:54.407Z,18.29
2018-06-02T03:56:21.943Z,18.29
2018-06-02T03:58:49.446Z,18.36
2018-06-02T04:01:16.944Z,18.51
2018-06-02T04:03:44.504Z,18.55
2018-06-02T04:06:11.998Z,18.58
2018-06-02T04:08:39.522Z,18.66
2018-06-02T04:11:07.034Z,18.64
2018-06-02T04:13:35.449Z,18.74
2018-06-02T04:16:02.959Z,18.82
2018-06-02T04:18:30.472Z,18.86
2018-06-02T04:20:57.971Z,18.95
2018-06-02T04:23:25.507Z,19.02
2018-06-02T04:25:53.025Z,18.92
2018-06-02T04:28:20.521Z,19.09
2018-06-02T04:30:48.022Z,19.15
2018-06-02T04:33:15.576Z,19.21
2018-06-02T04:35:43.112Z,19.24
2018-06-02T04:38:10.685Z,19.31
2018-06-02T04:40:38.249Z,19.35
2018-06-02T04:43:05.743Z,19.35
2018-06-02T04:45:33.260Z,19.40
2018-06-02T04:48:00.766Z,19.42
2018-06-02T04:50:28.278Z,19.45
2018-06-02T04:52:55.778Z,19.49
2018-06-02T04:55:23.291Z,19.44
2018-06-02T04:57:50.788Z,19.35
2018-06-02T05:00:18.288Z,19.43
2018-06-02T05:02:45.825Z,19.47
2018-06-02T05:05:13.334Z,19.45
2018-06-02T05:07:40.878Z,19.54
2018-06-02T05:10:08.392Z,19.58
2018-06-02T05:12:35.912Z,19.65
2018-06-02T05:15:03.437Z,19.76
2018-06-02T05:17:30.973Z,19.85
2018-06-02T05:19:58.474Z,19.77
2018-06-02T05:22:26.195Z,19.90
2018-06-02T05:24:53.713Z,19.91
2018-06-02T05:27:21.227Z,19.96
2018-06-02T05:29:48.734Z,19.96
2018-06-02T05:32:16.653Z,20.08
2018-06-02T05:34:44.161Z,20.20
2018-06-02T05:37:11.669Z,20.25
2018-06-02T05:39:39.230Z,20.41
2018-06-02T05:42:06.857Z,20.41
2018-06-02T05:44:34.411Z,20.41
2018-06-02T05:47:01.926Z,20.29
2018-06-02T05:49:29.443Z,20.38
2018-06-02T05:51:56.983Z,20.53
2018-06-02T05:54:24.491Z,20.62
2018-06-02T05:56:51.994Z,20.70
2018-06-02T05:59:19.541Z,20.79
2018-06-02T06:01:47.073Z,20.77
2018-06-02T06:04:14.593Z,20.84
2018-06-02T06:06:42.135Z,20.86
2018-06-02T06:09:09.646Z,20.95
2018-06-02T06:11:37.144Z,20.92
2018-06-02T06:14:04.693Z,20.88
2018-06-02T06:16:32.270Z,20.83
2018-06-02T06:18:59.782Z,20.98
2018-06-02T06:21:27.292Z,21.04
2018-06-02T06:23:54.823Z,21.13
2018-06-02T06:26:22.337Z,21.09
2018-06-02T06:28:49.887Z,21.15
2018-06-02T06:31:17.451Z,21.25
2018-06-02T06:33:44.967Z,21.34
2018-06-02T06:36:12.488Z,21.42
2018-06-02T06:38:40.024Z,21.51
2018-06-02T06:41:07.619Z,21.46
2018-06-02T06:43:35.127Z,21.62
2018-06-02T06:46:03.478Z,21.74
2018-06-02T06:48:30.971Z,21.81
2018-06-02T06:50:58.507Z,21.86
2018-06-02T06:53:26.057Z,21.82
2018-06-02T06:55:53.572Z,21.82
2018-06-02T06:58:21.076Z,21.90
2018-06-02T07:00:48.635Z,22.02
2018-06-02T07:03:16.175Z,22.20
2018-06-02T07:05:43.727Z,22.29
2018-06-02T07:08:11.248Z,22.43
2018-06-02T07:10:38.766Z,22.39
2018-06-02T07:13:06.275Z,22.49
2018-06-02T07:15:33.789Z,22.64
2018-06-02T07:18:01.309Z,22.81
2018-06-02T07:20:28.839Z,22.92
2018-06-02T07:22:56.343Z,23.09
2018-06-02T07:25:23.856Z,23.25
2018-06-02T07:27:51.368Z,23.35
2018-06-02T07:30:19.726Z,23.36
2018-06-02T07:32:47.264Z,23.39
2018-06-02T07:35:14.768Z,23.53
2018-06-02T07:37:42.260Z,23.64
2018-06-02T07:40:09.902Z,23.74
2018-06-02T07:42:37.521Z,23.79
2018-06-02T07:45:05.103Z,23.84
2018-06-02T07:47:32.619Z,23.96
2018-06-02T07:50:00.173Z,24.02
2018-06-02T07:52:27.654Z,24.20
2018-06-02T07:54:55.159Z,24.15
2018-06-02T07:57:22.688Z,24.17
2018-06-02T07:59:50.202Z,24.20
2018-06-02T08:02:17.748Z,24.37
2018-06-02T08:04:46.261Z,24.52
2018-06-02T08:07:13.817Z,24.63
2018-06-02T08:09:41.359Z,24.77
2018-06-02T08:12:09.071Z,24.92
2018-06-02T08:14:36.626Z,25.02
2018-06-02T08:17:04.142Z,25.08
2018-06-02T08:19:31.661Z,25.28
2018-06-02T08:21:59.165Z,25.24
2018-06-02T08:24:26.688Z,25.43
2018-06-02T08:26:54.189Z,25.46
2018-06-02T08:29:21.701Z,25.68
2018-06-02T08:31:49.228Z,25.79
2018-06-02T08:34:17.702Z,26.00
2018-06-02T08:36:45.215Z,26.20
2018-06-02T08:39:12.734Z,26.23
2018-06-02T08:41:40.244Z,26.47
2018-06-02T08:44:07.761Z,26.46
2018-06-02T08:46:35.304Z,26.60
2018-06-02T08:49:02.847Z,26.64
2018-06-02T08:51:30.418Z,26.68
2018-06-02T08:53:58.096Z,26.61
2018-06-02T08:56:25.592Z,26.73
2018-06-02T08:58:53.127Z,26.76
2018-06-02T09:01:20.625Z,26.98
2018-06-02T09:03:48.124Z,27.15
2018-06-02T09:06:15.656Z,27.16
2018-06-02T09:08:43.230Z,27.23
2018-06-02T09:11:10.799Z,27.19
2018-06-02T09:13:38.304Z,26.94
2018-06-02T09:16:05.811Z,26.98
2018-06-02T09:18:33.318Z,27.02
2018-06-02T09:21:00.827Z,26.94
2018-06-02T09:23:28.424Z,27.12
2018-06-02T09:25:55.936Z,27.20
2018-06-02T09:28:23.489Z,27.51
2018-06-02T09:30:51.039Z,27.64
2018-06-02T09:33:18.539Z,27.88
2018-06-02T09:35:46.064Z,28.03
2018-06-02T09:38:13.620Z,28.12
2018-06-02T09:40:42.343Z,28.06
2018-06-02T09:43:09.846Z,28.13
2018-06-02T09:45:37.351Z,28.21
2018-06-02T09:48:04.931Z,28.37
2018-06-02T09:50:32.444Z,28.47
2018-06-02T09:52:59.982Z,28.55
2018-06-02T09:55:27.493Z,28.68
2018-06-02T09:57:55.050Z,28.81
2018-06-02T10:00:22.643Z,28.86
2018-06-02T10:02:50.207Z,28.89
2018-06-02T10:05:17.704Z,28.54
2018-06-02T10:07:45.216Z,28.30
2018-06-02T10:10:12.728Z,28.51
2018-06-02T10:12:40.239Z,28.54
2018-06-02T10:15:07.747Z,28.77
2018-06-02T10:17:35.639Z,28.73
2018-06-02T10:20:03.173Z,28.95
2018-06-02T10:22:30.677Z,29.01
2018-06-02T10:24:58.210Z,29.26
2018-06-02T10:27:25.718Z,29.22
2018-06-02T10:29:53.243Z,29.34
2018-06-02T10:32:20.779Z,29.14
2018-06-02T10:34:48.367Z,29.02
2018-06-02T10:37:15.941Z,29.22
2018-06-02T10:39:43.448Z,29.17
2018-06-02T10:42:10.949Z,29.10
2018-06-02T10:44:38.576Z,28.36
2018-06-02T10:47:06.047Z,28.33
2018-06-02T10:49:33.566Z,28.51
2018-06-02T10:52:01.075Z,28.56
2018-06-02T10:54:29.477Z,28.57
2018-06-02T10:56:56.983Z,28.76
2018-06-02T10:59:24.533Z,29.24
2018-06-02T11:01:52.055Z,29.58
2018-06-02T11:04:19.583Z,29.80
2018-06-02T11:06:47.086Z,30.36
2018-06-02T11:09:14.599Z,30.54
2018-06-02T11:11:42.144Z,31.05
2018-06-02T11:14:09.648Z,31.20
2018-06-02T11:16:38.620Z,32.35
2018-06-02T11:19:06.164Z,32.69
2018-06-02T11:21:33.880Z,32.88
2018-06-02T11:24:01.394Z,33.37
2018-06-02T11:26:28.933Z,33.85
2018-06-02T11:28:56.435Z,34.31
2018-06-02T11:31:23.957Z,34.25
2018-06-02T11:33:52.534Z,34.75
2018-06-02T11:36:20.048Z,35.00
2018-06-02T11:38:47.662Z,34.97
2018-06-02T11:41:15.206Z,34.41
2018-06-02T11:43:42.725Z,34.07
2018-06-02T11:46:10.252Z,34.65
2018-06-02T11:48:37.754Z,35.09
2018-06-02T11:51:05.271Z,35.22
2018-06-02T11:53:32.838Z,35.04
2018-06-02T11:56:01.787Z,35.30
2018-06-02T11:58:29.296Z,35.64
2018-06-02T12:00:56.813Z,35.70
2018-06-02T12:03:24.383Z,35.49
2018-06-02T12:05:51.914Z,34.52
2018-06-02T12:08:19.434Z,34.38
2018-06-02T12:10:46.979Z,33.64
2018-06-02T12:13:16.470Z,33.83
2018-06-02T12:15:43.968Z,33.46
2018-06-02T12:18:11.537Z,33.23
2018-06-02T12:20:39.086Z,33.03
2018-06-02T12:23:06.681Z,33.42
2018-06-02T12:25:34.224Z,33.91
2018-06-02T12:28:01.740Z,34.57
2018-06-02T12:30:29.248Z,35.15
2018-06-02T12:32:56.783Z,35.47
2018-06-02T12:35:24.298Z,35.86
2018-06-02T12:37:51.860Z,36.01
2018-06-02T12:40:19.408Z,36.42
2018-06-02T12:42:47.921Z,36.57
2018-06-02T12:45:15.442Z,36.97
2018-06-02T12:47:42.979Z,37.31
2018-06-02T12:50:10.497Z,37.88
2018-06-02T12:52:38.204Z,38.09
2018-06-02T12:55:05.706Z,37.51
2018-06-02T12:57:33.246Z,37.41
2018-06-02T13:00:00.773Z,37.87
2018-06-02T13:02:28.272Z,37.53
2018-06-02T13:04:55.773Z,37.27
2018-06-02T13:07:23.281Z,36.99
2018-06-02T13:09:50.792Z,35.75
2018-06-02T13:12:18.307Z,34.71
2018-06-02T13:14:45.824Z,34.27
2018-06-02T13:17:13.320Z,33.71
2018-06-02T13:19:44.854Z,33.98
2018-06-02T13:22:13.000Z,33.56
2018-06-02T13:24:46.396Z,32.93
2018-06-02T13:27:13.951Z,32.19
2018-06-02T13:29:41.496Z,31.70
2018-06-02T13:32:09.056Z,31.88
2018-06-02T13:34:36.619Z,31.58
2018-06-02T13:37:04.178Z,31.91
2018-06-02T13:39:31.735Z,32.17
2018-06-02T13:41:59.251Z,32.33
2018-06-02T13:44:26.766Z,32.01
2018-06-02T13:46:54.283Z,32.28
2018-06-02T13:49:21.828Z,32.25
2018-06-02T13:51:49.368Z,31.30
2018-06-02T13:54:16.923Z,31.06
2018-06-02T13:56:44.442Z,30.96
2018-06-02T13:59:12.515Z,30.82
2018-06-02T14:01:40.033Z,29.88
2018-06-02T14:04:07.593Z,30.11
2018-06-02T14:06:35.099Z,30.67
2018-06-02T14:09:02.628Z,30.54
2018-06-02T14:11:30.122Z,30.65
2018-06-02T14:13:59.035Z,30.28
2018-06-02T14:16:26.544Z,29.48
2018-06-02T14:18:54.110Z,29.07
2018-06-02T14:21:21.675Z,28.74
2018-06-02T14:23:49.176Z,28.45
2018-06-02T14:26:16.748Z,28.34
2018-06-02T14:28:44.241Z,28.04
2018-06-02T14:31:12.678Z,27.90
2018-06-02T14:33:41.099Z,27.95
2018-06-02T14:36:08.605Z,28.01
2018-06-02T14:38:36.123Z,27.68
2018-06-02T14:41:03.636Z,27.61
2018-06-02T14:43:31.165Z,27.68
2018-06-02T14:45:58.670Z,27.72
2018-06-02T14:48:26.176Z,27.67
2018-06-02T14:50:53.691Z,27.59
2018-06-02T14:53:22.019Z,27.44
2018-06-02T14:55:51.324Z,27.22
2018-06-02T14:58:23.711Z,27.31
2018-06-02T15:00:51.245Z,27.50
2018-06-02T15:03:18.773Z,27.56
2018-06-02T15:05:46.278Z,27.55
2018-06-02T15:08:13.811Z,27.50
2018-06-02T15:10:50.768Z,27.35
2018-06-02T15:13:18.283Z,27.44
2018-06-02T15:15:47.566Z,27.35
2018-06-02T15:18:15.096Z,27.33
2018-06-02T15:20:44.894Z,27.30
2018-06-02T15:23:12.425Z,27.27
2018-06-02T15:25:39.939Z,27.14
2018-06-02T15:30:44.424Z,26.83
2018-06-02T15:33:14.778Z,26.87
2018-06-02T15:35:43.334Z,26.80
2018-06-02T15:38:11.406Z,26.83
2018-06-02T15:40:40.435Z,26.72
2018-06-02T15:43:08.732Z,26.69
2018-06-02T15:45:37.926Z,26.42
2018-06-02T15:48:06.268Z,26.21
2018-06-02T15:50:33.761Z,25.54
2018-06-02T15:53:04.163Z,25.15
2018-06-02T15:55:32.490Z,24.67
2018-06-02T15:58:01.635Z,23.72
2018-06-02T16:00:29.192Z,23.07
2018-06-02T16:02:58.582Z,22.62
2018-06-02T16:05:26.082Z,22.41
2018-06-02T16:07:53.592Z,22.39
2018-06-02T16:10:21.640Z,22.41
2018-06-02T16:12:52.372Z,22.23
2018-06-02T16:15:19.886Z,22.04
2018-06-02T16:17:47.384Z,21.86
2018-06-02T16:20:14.891Z,21.57
2018-06-02T16:22:45.933Z,21.54
2018-06-02T16:25:14.335Z,21.48
2018-06-02T16:27:41.837Z,21.55
2018-06-02T16:30:10.641Z,21.43
2018-06-02T16:32:38.933Z,21.20
2018-06-02T16:35:07.343Z,21.26
2018-06-02T16:37:34.868Z,21.35
2018-06-02T16:40:06.506Z,21.51
2018-06-02T16:42:34.025Z,21.42
2018-06-02T16:45:01.552Z,21.38
2018-06-02T16:47:29.058Z,21.44
2018-06-02T16:49:57.545Z,21.55
2018-06-02T16:52:25.056Z,21.60
2018-06-02T16:54:52.571Z,21.58
2018-06-02T16:57:20.139Z,21.73
2018-06-02T16:59:47.766Z,21.77
2018-06-02T17:02:15.294Z,21.68
2018-06-02T17:04:42.804Z,21.76
2018-06-02T17:07:10.309Z,21.74
2018-06-02T17:09:37.820Z,21.67
2018-06-02T17:12:06.422Z,21.71
2018-06-02T17:14:34.996Z,21.73
2018-06-02T17:17:03.642Z,21.73
2018-06-02T17:19:31.143Z,21.62
2018-06-02T17:21:58.682Z,21.59
2018-06-02T17:24:27.595Z,21.64
2018-06-02T17:26:55.219Z,21.68
2018-06-02T17:29:23.319Z,21.76
2018-06-02T17:31:51.942Z,21.78
2018-06-02T17:34:19.448Z,21.92
2018-06-02T17:36:46.963Z,21.82
2018-06-02T17:39:14.459Z,21.94
2018-06-02T17:41:41.946Z,21.95
2018-06-02T17:44:09.562Z,22.01
2018-06-02T17:46:37.166Z,22.03
2018-06-02T17:49:04.676Z,21.87
2018-06-02T17:51:32.201Z,22.00
2018-06-02T17:53:59.763Z,22.02
2018-06-02T17:56:27.261Z,22.02
2018-06-02T17:58:54.769Z,21.94
2018-06-02T18:01:22.332Z,21.92
2018-06-02T18:03:49.874Z,21.88
2018-06-02T18:06:17.388Z,21.88
2018-06-02T18:08:44.997Z,21.76
2018-06-02T18:11:12.534Z,21.70
2018-06-02T18:13:40.788Z,21.66
2018-06-02T18:16:08.323Z,21.60
2018-06-02T18:18:36.050Z,21.44
2018-06-02T18:21:03.562Z,21.45
2018-06-02T18:23:31.127Z,21.43
2018-06-02T18:25:58.628Z,21.27
2018-06-02T18:28:26.208Z,21.16
2018-06-02T18:30:53.717Z,21.04
2018-06-02T18:33:21.967Z,21.19
2018-06-02T18:35:49.501Z,21.25
2018-06-02T18:38:17.031Z,21.37
2018-06-02T18:40:44.562Z,21.36
2018-06-02T18:43:12.075Z,21.48
2018-06-02T18:45:39.593Z,21.58
2018-06-02T18:48:07.119Z,21.52
2018-06-02T18:50:34.627Z,21.56
2018-06-02T18:53:02.148Z,21.69
2018-06-02T18:55:29.665Z,21.73
2018-06-02T18:57:57.172Z,21.71
2018-06-02T19:00:24.706Z,21.55
2018-06-02T19:02:52.239Z,21.41
2018-06-02T19:05:19.757Z,21.30
2018-06-02T19:07:47.263Z,21.12
2018-06-02T19:10:15.504Z,21.04
2018-06-02T19:12:43.044Z,20.71
2018-06-02T19:15:11.492Z,20.47
2018-06-02T19:17:39.010Z,20.12
2018-06-02T19:20:06.564Z,19.98
2018-06-02T19:22:34.062Z,19.94
2018-06-02T19:25:01.614Z,19.93
2018-06-02T19:27:29.113Z,19.79
2018-06-02T19:29:56.648Z,19.75
2018-06-02T19:32:24.263Z,19.70
2018-06-02T19:34:51.825Z,19.69
2018-06-02T19:37:19.341Z,19.67
2018-06-02T19:39:46.892Z,19.56
2018-06-02T19:42:14.402Z,19.47
2018-06-02T19:44:41.954Z,19.53
2018-06-02T19:47:09.473Z,19.59
2018-06-02T19:49:36.974Z,19.53
2018-06-02T19:52:04.541Z,19.59
2018-06-02T19:54:32.055Z,19.67
2018-06-02T19:56:59.559Z,19.64
2018-06-02T19:59:27.065Z,19.66
2018-06-02T20:01:54.601Z,19.73
2018-06-02T20:04:22.104Z,19.76
2018-06-02T20:06:49.595Z,19.80
2018-06-02T20:09:17.627Z,19.82
2018-06-02T20:11:47.037Z,19.71
2018-06-02T20:14:14.735Z,19.70
2018-06-02T20:16:42.255Z,19.66
2018-06-02T20:19:09.766Z,19.65
2018-06-02T20:21:37.866Z,19.66
2018-06-02T20:24:05.368Z,19.63
2018-06-02T20:26:32.906Z,19.70
2018-06-02T20:29:00.411Z,19.64
2018-06-02T20:31:27.944Z,19.54
2018-06-02T20:33:55.447Z,19.43
2018-06-02T20:36:25.851Z,19.52
2018-06-02T20:38:53.346Z,19.50
2018-06-02T20:41:20.867Z,19.45
2018-06-02T20:43:48.379Z,19.40
2018-06-02T20:46:15.941Z,19.39
2018-06-02T20:48:44.184Z,19.31
2018-06-02T20:51:11.692Z,19.26
2018-06-02T20:53:39.203Z,19.26
2018-06-02T20:56:06.707Z,19.28
2018-06-02T20:58:34.225Z,19.24
2018-06-02T21:01:01.749Z,19.23
2018-06-02T21:03:29.261Z,19.24
2018-06-02T21:05:57.072Z,19.24
2018-06-02T21:08:24.621Z,19.21
2018-06-02T21:10:53.775Z,19.19
2018-06-02T21:13:21.461Z,19.22
2018-06-02T21:15:49.331Z,19.14
2018-06-02T21:18:16.867Z,19.13
2018-06-02T21:20:44.385Z,19.13
2018-06-02T21:23:11.914Z,19.10
2018-06-02T21:25:39.442Z,19.13
2018-06-02T21:28:06.976Z,19.12
2018-06-02T21:30:34.549Z,19.15
2018-06-02T21:33:02.095Z,19.04
2018-06-02T21:35:29.624Z,19.06
2018-06-02T21:37:57.946Z,18.92
2018-06-02T21:40:25.484Z,18.91
2018-06-02T21:42:53.003Z,18.96
2018-06-02T21:45:20.691Z,18.95
2018-06-02T21:47:48.234Z,18.96
2018-06-02T21:50:15.761Z,18.90
2018-06-02T21:52:43.298Z,18.91
2018-06-02T21:55:10.875Z,18.88
2018-06-02T21:57:38.517Z,18.82
2018-06-02T22:00:06.078Z,18.79
2018-06-02T22:02:33.613Z,18.66
2018-06-02T22:05:01.155Z,18.62
2018-06-02T22:07:28.693Z,18.57
2018-06-02T22:09:56.265Z,18.55
2018-06-02T22:12:24.839Z,18.54
2018-06-02T22:14:52.481Z,18.49
2018-06-02T22:17:20.094Z,18.49
2018-06-02T22:19:47.620Z,18.55
2018-06-02T22:22:15.238Z,18.61
2018-06-02T22:24:42.790Z,18.58
2018-06-02T22:27:10.325Z,18.42
2018-06-02T22:29:37.936Z,18.48
2018-06-02T22:32:05.473Z,18.49
2018-06-02T22:34:34.454Z,18.31
2018-06-02T22:37:02.024Z,18.19
2018-06-02T22:39:29.632Z,18.22
2018-06-02T22:41:57.181Z,18.25
2018-06-02T22:44:25.409Z,18.19
2018-06-02T22:46:52.949Z,18.11
2018-06-02T22:49:21.423Z,18.08
2018-06-02T22:51:58.850Z,18.14
2018-06-02T22:54:26.454Z,18.17
2018-06-02T22:56:54.035Z,18.16
2018-06-02T22:59:21.581Z,18.24
2018-06-02T23:01:50.062Z,18.18
2018-06-02T23:04:17.607Z,18.11
2018-06-02T23:06:46.239Z,18.11
2018-06-02T23:09:13.788Z,18.05
2018-06-02T23:11:41.444Z,18.04
2018-06-02T23:14:08.978Z,17.91
2018-06-02T23:16:36.575Z,17.95
2018-06-02T23:19:04.106Z,17.85
2018-06-02T23:21:31.800Z,17.87
2018-06-02T23:23:59.355Z,17.80
2018-06-02T23:26:26.883Z,17.74
2018-06-02T23:28:54.497Z,17.69
2018-06-02T23:31:22.026Z,17.68
2018-06-02T23:33:51.424Z,17.63
2018-06-02T23:36:20.573Z,17.54
2018-06-02T23:38:48.139Z,17.50
2018-06-02T23:41:16.833Z,17.43
2018-06-02T23:43:44.394Z,17.32
2018-06-02T23:46:11.918Z,17.32
2018-06-02T23:48:39.458Z,17.26
2018-06-02T23:51:06.992Z,17.26
2018-06-02T23:53:34.522Z,17.18
2018-06-02T23:56:02.079Z,17.11
2018-06-02T23:58:29.643Z,17.11
